Time;durP1;ratioP1;P1;durP2;ratioP2;P2;SDS_P1;SDS_P2;PMS_P1;PMS_P2;Temp;Humidity;BMP_temperature;BMP_pressure;BME280_temperature;BME280_humidity;BME280_pressure;Samples;Min_cycle;Max_cycle;Signal;HPM_P1;HPM_P2
2021/07/15 00:00:42;;;;;;;0.43;0.20;;;;;;;11.52;100.00;92642.63;2093849;28;20025;-88
2021/07/15 00:01:43;;;;;;;3.40;0.30;;;;;;;11.56;100.00;92650.56;2090599;28;20112;-88
2021/07/15 00:02:44;;;;;;;1.45;0.20;;;;;;;11.55;100.00;92641.78;2090620;28;20540;-90
2021/07/15 00:03:45;;;;;;;0.25;0.10;;;;;;;11.60;100.00;92643.91;2098657;28;20025;-88
2021/07/15 00:04:46;;;;;;;1.42;0.10;;;;;;;11.58;100.00;92640.88;2081975;28;20474;-87
2021/07/15 00:05:48;;;;;;;0.17;0.17;;;;;;;11.53;100.00;92641.44;2073747;28;20153;-91
2021/07/15 00:06:49;;;;;;;0.38;0.20;;;;;;;11.51;100.00;92648.44;2063991;28;20123;-88
2021/07/15 00:07:50;;;;;;;0.55;0.30;;;;;;;11.45;100.00;92642.84;2079167;28;20602;-89
2021/07/15 00:08:55;;;;;;;0.30;0.10;;;;;;;11.50;100.00;92645.00;2087727;28;20406;-92
2021/07/15 00:09:56;;;;;;;1.75;0.20;;;;;;;11.48;100.00;92642.00;2074553;28;20030;-91
2021/07/15 00:10:59;;;;;;;0.90;0.20;;;;;;;11.52;100.00;92642.63;2080408;28;20026;-88
2021/07/15 00:12:00;;;;;;;0.40;0.20;;;;;;;11.40;100.00;92640.72;2081017;28;20486;-90
2021/07/15 00:13:03;;;;;;;1.30;0.10;;;;;;;11.42;100.00;92635.72;2077685;28;20029;-90
2021/07/15 00:14:04;;;;;;;0.10;0.10;;;;;;;11.46;100.00;92639.03;2075559;28;20072;-92
2021/07/15 00:15:06;;;;;;;1.55;0.10;;;;;;;11.48;100.00;92633.22;2069003;28;20026;-91
2021/07/15 00:16:11;;;;;;;1.60;0.10;;;;;;;11.46;100.00;92643.63;2073889;28;20084;-88
2021/07/15 00:17:12;;;;;;;0.55;0.10;;;;;;;11.45;100.00;92639.44;2071879;28;20034;-88
2021/07/15 00:18:14;;;;;;;0.40;0.10;;;;;;;11.42;100.00;92643.75;2073936;28;20022;-90
2021/07/15 00:19:18;;;;;;;0.32;0.10;;;;;;;11.43;100.00;92642.56;2074402;28;20025;-91
2021/07/15 00:20:19;;;;;;;1.35;0.10;;;;;;;11.38;100.00;92632.41;2083175;28;20112;-88
2021/07/15 00:21:23;;;;;;;3.30;0.17;;;;;;;11.40;100.00;92638.06;2075315;28;20022;-90
2021/07/15 00:22:23;;;;;;;4.05;0.17;;;;;;;11.42;100.00;92633.03;2082515;28;20032;-89
2021/07/15 00:23:25;;;;;;;0.50;0.30;;;;;;;11.42;100.00;92632.28;2073801;28;20036;-88
2021/07/15 00:24:27;;;;;;;0.20;0.10;;;;;;;11.50;100.00;92636.97;2074426;28;20034;-89
2021/07/15 00:25:28;;;;;;;0.68;0.10;;;;;;;11.53;100.00;92630.75;2090473;28;20111;-90
2021/07/15 00:26:29;;;;;;;0.55;0.20;;;;;;;11.47;100.00;92634.41;2082198;28;20032;-89
2021/07/15 00:27:30;;;;;;;1.55;0.10;;;;;;;11.44;100.00;92633.34;2071326;28;20021;-89
2021/07/15 00:28:31;;;;;;;0.30;0.20;;;;;;;11.38;100.00;92632.41;2082184;28;20025;-90
2021/07/15 00:29:32;;;;;;;0.20;0.10;;;;;;;11.37;100.00;92630.91;2082091;28;20111;-90
2021/07/15 00:30:33;;;;;;;1.58;0.10;;;;;;;11.40;100.00;92632.69;2066008;28;20487;-88
2021/07/15 00:31:34;;;;;;;1.73;0.20;;;;;;;11.41;100.00;92628.09;2082348;28;20030;-88
2021/07/15 00:32:35;;;;;;;0.43;0.20;;;;;;;11.39;100.00;92625.84;2082088;28;20510;-91
2021/07/15 00:33:36;;;;;;;0.63;0.20;;;;;;;11.44;100.00;92630.66;2064534;28;20386;-92
2021/07/15 00:34:37;;;;;;;0.63;0.20;;;;;;;11.34;100.00;92627.16;2077762;28;20029;-91
2021/07/15 00:35:38;;;;;;;0.90;0.15;;;;;;;11.39;100.00;92623.19;2089928;28;20020;-88
2021/07/15 00:36:39;;;;;;;0.63;0.30;;;;;;;11.33;100.00;92624.94;2085160;28;20079;-91
2021/07/15 00:37:41;;;;;;;1.38;0.20;;;;;;;11.35;100.00;92622.56;2081648;28;20029;-90
2021/07/15 00:38:42;;;;;;;4.95;0.20;;;;;;;11.30;100.00;92618.50;2073922;28;20033;-88
2021/07/15 00:39:43;;;;;;;0.75;0.20;;;;;;;11.35;100.00;92617.19;2076964;28;20017;-89
2021/07/15 00:40:44;;;;;;;0.30;0.10;;;;;;;11.37;100.00;92616.75;2089888;28;20028;-89
2021/07/15 00:41:45;;;;;;;0.32;0.20;;;;;;;11.38;100.00;92621.69;2087198;28;20024;-90
2021/07/15 00:42:46;;;;;;;5.30;0.98;;;;;;;11.39;100.00;92623.19;2074848;28;20033;-88
2021/07/15 00:43:47;;;;;;;0.32;0.10;;;;;;;11.39;100.00;92619.75;2073906;28;20069;-88
2021/07/15 00:44:48;;;;;;;0.10;0.10;;;;;;;11.38;100.00;92619.03;2074102;28;20461;-90
2021/07/15 00:45:50;;;;;;;0.38;0.10;;;;;;;11.43;100.00;92623.81;2081884;28;20076;-89
2021/07/15 00:46:51;;;;;;;1.45;0.10;;;;;;;11.48;100.00;92619.84;2090098;28;20021;-90
2021/07/15 00:47:52;;;;;;;0.10;0.10;;;;;;;11.42;100.00;92622.31;2073344;28;20026;-88
2021/07/15 00:48:53;;;;;;;0.10;0.10;;;;;;;11.37;100.00;92620.22;2071373;28;20053;-89
2021/07/15 00:49:54;;;;;;;1.15;0.10;;;;;;;11.45;100.00;92615.34;2090776;28;20040;-88
2021/07/15 00:50:55;;;;;;;1.00;0.10;;;;;;;11.35;100.00;92617.19;2085501;28;20036;-88
2021/07/15 00:51:56;;;;;;;0.30;0.10;;;;;;;11.39;100.00;92612.47;2090094;28;20025;-88
2021/07/15 00:52:58;;;;;;;0.45;0.10;;;;;;;11.40;100.00;92622.00;2090143;28;20120;-88
2021/07/15 00:53:59;;;;;;;0.17;0.13;;;;;;;11.32;100.00;92618.06;2081801;28;20025;-89
2021/07/15 00:55:00;;;;;;;0.85;0.20;;;;;;;11.28;100.00;92612.06;2075140;28;20105;-87
2021/07/15 00:56:02;;;;;;;0.03;0.03;;;;;;;11.33;100.00;92614.22;2081950;28;20104;-90
2021/07/15 00:57:03;;;;;;;0.38;0.10;;;;;;;11.35;100.00;92617.19;2065536;28;20029;-89
2021/07/15 00:58:06;;;;;;;1.00;0.10;;;;;;;11.37;100.00;92619.44;2072835;28;20025;-90
2021/07/15 00:59:06;;;;;;;0.28;0.10;;;;;;;11.39;100.00;92614.41;2074812;28;20178;-87
2021/07/15 01:00:10;;;;;;;1.20;0.10;;;;;;;11.41;100.00;92620.81;2073075;28;20034;-92
2021/07/15 01:01:11;;;;;;;0.40;0.03;;;;;;;11.39;100.00;92617.09;2065686;28;20025;-89
2021/07/15 01:02:12;;;;;;;0.20;0.10;;;;;;;11.35;100.00;92620.63;2072303;28;20017;-87
2021/07/15 01:03:14;;;;;;;0.57;0.15;;;;;;;11.25;100.00;92611.03;2081950;28;20030;-89
2021/07/15 01:04:15;;;;;;;1.10;0.10;;;;;;;11.27;100.00;92614.00;2081550;28;20119;-91
2021/07/15 01:05:20;;;;;;;0.68;0.00;;;;;;;11.28;100.00;92615.53;2058241;28;20073;-89
2021/07/15 01:06:23;;;;;;;0.08;0.03;;;;;;;11.25;100.00;92620.97;2075015;28;20049;-91
2021/07/15 01:07:24;;;;;;;3.00;0.10;;;;;;;11.24;100.00;92622.91;2081518;28;20040;-90
2021/07/15 01:08:25;;;;;;;2.35;0.25;;;;;;;11.25;100.00;92612.94;2073619;28;20093;-89
2021/07/15 01:09:28;;;;;;;0.20;0.20;;;;;;;11.28;100.00;92612.84;2081785;28;20029;-90
2021/07/15 01:10:39;;;;;;;0.47;0.10;;;;;;;11.28;100.00;92614.75;2082128;28;20037;-87
2021/07/15 01:12:11;;;;;;;0.28;0.17;;;;;;;11.28;100.00;92612.06;2083271;28;20025;-92
2021/07/15 01:13:29;;;;;;;0.20;0.10;;;;;;;11.27;100.00;92613.25;2073817;28;20053;-90
2021/07/15 01:14:38;;;;;;;0.82;0.30;;;;;;;11.26;100.00;92611.78;2078465;28;20538;-91
2021/07/15 01:16:03;;;;;;;0.68;0.10;;;;;;;11.25;100.00;92611.03;2082894;28;20108;-89
2021/07/15 01:17:11;;;;;;;1.45;0.20;;;;;;;11.26;100.00;92604.50;2089986;28;20024;-91
2021/07/15 01:18:23;;;;;;;0.20;0.10;;;;;;;11.32;100.00;92612.69;2082805;28;20019;-90
2021/07/15 01:20:03;;;;;;;0.65;0.10;;;;;;;11.24;100.00;92603.44;2067004;28;20026;-91
2021/07/15 01:21:16;;;;;;;;;;;;;;;11.26;100.00;92609.09;2077493;28;20520;-86
2021/07/15 01:22:35;;;;;;;2.90;0.10;;;;;;;11.31;100.00;92616.56;2075027;28;20267;-89
2021/07/15 01:24:09;;;;;;;0.50;0.10;;;;;;;11.26;100.00;92609.84;2065027;28;20049;-90
2021/07/15 01:25:37;;;;;;;0.10;0.10;;;;;;;11.31;100.00;92609.28;2074380;28;20030;-88
2021/07/15 01:27:10;;;;;;;1.65;0.30;;;;;;;11.28;100.00;92612.84;2069000;28;20042;-91
2021/07/15 01:28:24;;;;;;;0.73;0.10;;;;;;;11.27;100.00;92610.59;2075996;28;20386;-90
2021/07/15 01:29:47;;;;;;;0.47;0.10;;;;;;;11.25;100.00;92610.28;2075146;28;20029;-88
2021/07/15 01:30:52;;;;;;;0.00;0.00;;;;;;;11.30;100.00;92609.72;2081733;28;20021;-90
2021/07/15 01:31:56;;;;;;;0.20;0.20;;;;;;;11.25;100.00;92612.94;2074307;28;20026;-90
2021/07/15 01:33:15;;;;;;;5.10;0.30;;;;;;;11.18;100.00;92607.81;2081618;28;20037;-90
2021/07/15 01:34:19;;;;;;;0.47;0.10;;;;;;;11.17;100.00;92614.34;2070094;28;20141;-93
2021/07/15 01:35:26;;;;;;;0.20;0.20;;;;;;;11.20;100.00;92605.47;2079297;28;20024;-89
2021/07/15 01:36:31;;;;;;;0.20;0.17;;;;;;;11.22;100.00;92603.09;2081929;28;20028;-89
2021/07/15 01:37:34;;;;;;;0.35;0.10;;;;;;;11.16;100.00;92605.59;2082094;28;20031;-90
2021/07/15 01:38:40;;;;;;;0.28;0.10;;;;;;;11.20;100.00;92600.88;2081370;28;20029;-91
2021/07/15 01:39:46;;;;;;;2.20;0.13;;;;;;;11.20;100.00;92606.22;2073194;28;20025;-88
2021/07/15 01:40:53;;;;;;;5.28;0.13;;;;;;;11.20;100.00;92603.53;2071681;28;20041;-88
2021/07/15 01:41:59;;;;;;;1.02;0.10;;;;;;;11.20;100.00;92598.19;2082448;28;20021;-86
2021/07/15 01:43:05;;;;;;;0.38;0.00;;;;;;;11.25;100.00;92600.31;2073968;28;20573;-93
2021/07/15 01:44:11;;;;;;;1.13;0.10;;;;;;;11.28;100.00;92596.78;2065996;28;20033;-90
2021/07/15 01:45:12;;;;;;;0.32;0.13;;;;;;;11.26;100.00;92603.75;2074678;28;20097;-91
2021/07/15 01:46:14;;;;;;;1.55;0.10;;;;;;;11.24;100.00;92603.44;2081540;28;20026;-88
2021/07/15 01:47:15;;;;;;;2.50;0.10;;;;;;;11.26;100.00;92601.06;2081743;28;20076;-88
2021/07/15 01:48:17;;;;;;;0.00;0.00;;;;;;;11.28;100.00;92607.50;2088956;28;20497;-89
2021/07/15 01:49:18;;;;;;;0.30;0.20;;;;;;;11.24;100.00;92598.09;2072758;28;20041;-91
2021/07/15 01:50:19;;;;;;;0.32;0.20;;;;;;;11.23;100.00;92601.91;2072851;28;20045;-92
2021/07/15 01:51:22;;;;;;;0.20;0.20;;;;;;;11.23;100.00;92602.66;2065088;28;20057;-88
2021/07/15 01:52:24;;;;;;;0.45;0.10;;;;;;;11.28;100.00;92614.75;2073321;28;20056;-88
2021/07/15 01:53:27;;;;;;;0.10;0.10;;;;;;;11.25;100.00;92610.28;2079819;28;20060;-89
2021/07/15 01:54:29;;;;;;;2.83;0.20;;;;;;;11.21;100.00;92607.72;2073378;28;20498;-88
2021/07/15 01:55:30;;;;;;;0.10;0.10;;;;;;;11.24;100.00;92606.84;2060929;28;20531;-89
2021/07/15 01:56:32;;;;;;;0.00;0.00;;;;;;;11.17;100.00;92614.34;2073140;28;20038;-88
2021/07/15 01:57:37;;;;;;;1.45;0.22;;;;;;;11.22;100.00;92605.78;2084366;28;20431;-88
2021/07/15 01:58:40;;;;;;;1.40;0.20;;;;;;;11.20;100.00;92610.81;2081909;28;20069;-88
2021/07/15 01:59:43;;;;;;;1.40;0.20;;;;;;;11.26;100.00;92604.50;2081603;28;20021;-87
2021/07/15 02:00:44;;;;;;;2.35;0.20;;;;;;;11.25;100.00;92607.59;2077239;28;20562;-87
2021/07/15 02:01:49;;;;;;;4.47;0.20;;;;;;;11.27;100.00;92610.59;2081517;28;20025;-91
2021/07/15 02:02:51;;;;;;;0.47;0.10;;;;;;;11.29;100.00;92608.25;2077423;28;20025;-89
2021/07/15 02:03:56;;;;;;;2.45;0.10;;;;;;;11.27;100.00;92605.97;2073319;28;20099;-94
2021/07/15 02:04:57;;;;;;;2.47;0.30;;;;;;;11.24;100.00;92606.84;2071390;28;20025;-88
2021/07/15 02:06:01;;;;;;;0.10;0.10;;;;;;;11.29;100.00;92614.34;2070502;28;20153;-88
2021/07/15 02:07:04;;;;;;;0.10;0.10;;;;;;;11.28;100.00;92606.72;2095101;28;20099;-92
2021/07/15 02:08:06;;;;;;;0.15;0.10;;;;;;;11.28;100.00;92606.72;2089270;28;20124;-90
2021/07/15 02:09:09;;;;;;;0.10;0.10;;;;;;;11.28;100.00;92606.72;2073714;28;20501;-89
2021/07/15 02:10:18;;;;;;;0.10;0.10;;;;;;;11.29;100.00;92605.56;2081967;28;20057;-90
2021/07/15 02:11:22;;;;;;;3.30;0.10;;;;;;;11.27;100.00;92607.91;2082301;28;20577;-89
2021/07/15 02:12:24;;;;;;;2.50;0.10;;;;;;;11.30;100.00;92601.69;2089804;28;20028;-88
2021/07/15 02:13:26;;;;;;;0.35;0.35;;;;;;;11.31;100.00;92597.84;2097679;28;20020;-87
2021/07/15 02:14:27;;;;;;;0.25;0.20;;;;;;;11.29;100.00;92597.53;2100902;28;20055;-91
2021/07/15 02:15:29;;;;;;;0.10;0.10;;;;;;;11.25;100.00;92604.94;2089280;28;20513;-86
2021/07/15 02:16:32;;;;;;;4.38;0.13;;;;;;;11.26;100.00;92598.38;2089685;28;20490;-91
2021/07/15 02:17:40;;;;;;;0.10;0.10;;;;;;;11.30;100.00;92599.03;2098187;28;20024;-88
2021/07/15 02:18:42;;;;;;;0.38;0.10;;;;;;;11.29;100.00;92595.59;2089660;28;20543;-89
2021/07/15 02:19:44;;;;;;;1.00;0.20;;;;;;;11.25;100.00;92594.22;2081729;28;20112;-90
2021/07/15 02:20:49;;;;;;;0.10;0.10;;;;;;;11.24;100.00;92592.75;2075632;28;20036;-88
2021/07/15 02:21:51;;;;;;;3.15;0.30;;;;;;;11.26;100.00;92582.34;2079354;28;20071;-89
2021/07/15 02:22:53;;;;;;;0.20;0.20;;;;;;;11.29;100.00;92581.47;2089638;28;20033;-90
2021/07/15 02:23:56;;;;;;;0.95;0.20;;;;;;;11.25;100.00;92584.28;2084508;28;20698;-89
2021/07/15 02:24:58;;;;;;;1.88;0.20;;;;;;;11.26;100.00;92572.38;2068228;28;20038;-87
2021/07/15 02:26:00;;;;;;;0.17;0.17;;;;;;;11.27;100.00;92579.22;2071793;28;20080;-88
2021/07/15 02:27:04;;;;;;;0.38;0.20;;;;;;;11.28;100.00;92574.63;2082959;28;20021;-91
2021/07/15 02:28:06;;;;;;;1.23;0.10;;;;;;;11.27;100.00;92581.91;2098212;28;20035;-88
2021/07/15 02:29:07;;;;;;;0.10;0.10;;;;;;;11.27;100.00;92583.81;2082102;28;20079;-90
2021/07/15 02:30:11;;;;;;;0.80;0.20;;;;;;;11.24;100.00;92576.69;2089510;28;20024;-89
2021/07/15 02:31:16;;;;;;;0.10;0.10;;;;;;;11.17;100.00;92574.97;2089765;28;20029;-91
2021/07/15 02:32:17;;;;;;;0.93;0.10;;;;;;;11.21;100.00;92569.50;2092860;28;20424;-89
2021/07/15 02:33:22;;;;;;;0.13;0.10;;;;;;;11.24;100.00;92576.69;2080587;28;20026;-89
2021/07/15 02:34:30;;;;;;;0.52;0.20;;;;;;;11.22;100.00;92585.13;2091123;28;20488;-89
2021/07/15 02:35:35;;;;;;;1.20;0.13;;;;;;;11.22;100.00;92576.34;2088967;28;20031;-91
2021/07/15 02:36:37;;;;;;;0.20;0.10;;;;;;;11.19;100.00;92571.88;2082714;28;20614;-90
2021/07/15 02:37:40;;;;;;;1.23;0.10;;;;;;;11.26;100.00;92577.72;2074472;28;20029;-89
2021/07/15 02:38:45;;;;;;;1.83;0.17;;;;;;;11.28;100.00;92574.63;2078015;28;20025;-89
2021/07/15 02:39:46;;;;;;;2.17;0.13;;;;;;;11.30;100.00;92565.00;2088321;28;20047;-87
2021/07/15 02:40:47;;;;;;;3.28;0.30;;;;;;;11.31;100.00;92568.41;2083928;28;20112;-89
2021/07/15 02:41:48;;;;;;;0.30;0.20;;;;;;;11.26;100.00;92572.38;2081321;28;20029;-90
2021/07/15 02:42:49;;;;;;;2.40;0.20;;;;;;;11.24;100.00;92561.38;2081277;28;20394;-90
2021/07/15 02:43:50;;;;;;;0.20;0.10;;;;;;;11.25;100.00;92570.16;2094931;28;20071;-86
2021/07/15 02:44:51;;;;;;;0.20;0.10;;;;;;;11.25;100.00;92570.91;2097660;28;20033;-89
2021/07/15 02:45:52;;;;;;;0.22;0.20;;;;;;;11.25;100.00;92570.16;2089368;28;20497;-90
2021/07/15 02:46:53;;;;;;;0.45;0.25;;;;;;;11.29;100.00;92570.78;2089358;28;20047;-90
2021/07/15 02:47:54;;;;;;;0.30;0.20;;;;;;;11.22;100.00;92571.00;2081111;28;20018;-87
2021/07/15 02:48:56;;;;;;;1.75;0.13;;;;;;;11.21;100.00;92572.19;2080876;28;20049;-87
2021/07/15 02:49:57;;;;;;;0.30;0.15;;;;;;;11.22;100.00;92576.34;2089520;28;20025;-87
2021/07/15 02:50:57;;;;;;;0.10;0.10;;;;;;;11.19;100.00;92577.94;2093670;28;20020;-90
2021/07/15 02:51:58;;;;;;;0.25;0.25;;;;;;;11.19;100.00;92569.94;2085074;28;20482;-90
2021/07/15 02:53:00;;;;;;;0.75;0.32;;;;;;;11.16;100.00;92572.75;2103171;28;20055;-89
2021/07/15 02:54:02;;;;;;;1.33;0.20;;;;;;;11.10;100.00;92565.25;2089384;28;20661;-89
2021/07/15 02:55:05;;;;;;;0.47;0.20;;;;;;;11.09;100.00;92568.38;2075956;28;20033;-91
2021/07/15 02:56:25;;;;;;;0.73;0.17;;;;;;;11.09;100.00;92563.75;2073689;28;20022;-87
2021/07/15 02:57:40;;;;;;;0.73;0.20;;;;;;;10.99;100.00;92570.22;2084579;28;20029;-89
2021/07/15 02:58:55;;;;;;;2.38;0.20;;;;;;;11.09;100.00;92565.69;2091349;28;20108;-86
2021/07/15 03:00:07;;;;;;;1.88;0.10;;;;;;;11.08;100.00;92574.91;2093474;28;20025;-88
2021/07/15 03:01:11;;;;;;;0.10;0.10;;;;;;;11.05;100.00;92579.16;2085160;28;20027;-89
2021/07/15 03:02:18;;;;;;;1.55;0.20;;;;;;;11.05;100.00;92578.44;2088462;28;20032;-89
2021/07/15 03:03:37;;;;;;;0.20;0.17;;;;;;;11.04;100.00;92577.69;2084655;28;20029;-86
2021/07/15 03:04:45;;;;;;;0.93;0.10;;;;;;;11.03;100.00;92581.53;2087657;28;20025;-91
2021/07/15 03:06:02;;;;;;;0.30;0.30;;;;;;;10.99;100.00;92577.50;2078346;28;20042;-90
2021/07/15 03:07:07;;;;;;;0.05;0.03;;;;;;;11.03;100.00;92581.53;2099196;28;20027;-89
2021/07/15 03:08:12;;;;;;;0.10;0.10;;;;;;;11.03;100.00;92580.78;2099079;28;20513;-88
2021/07/15 03:09:21;;;;;;;0.15;0.15;;;;;;;11.07;100.00;92589.44;2099682;28;20457;-91
2021/07/15 03:10:23;;;;;;;1.52;0.45;;;;;;;11.00;100.00;92576.31;2090783;28;20032;-90
2021/07/15 03:11:31;;;;;;;0.73;0.28;;;;;;;10.97;100.00;92577.91;2082760;28;20504;-88
2021/07/15 03:12:37;;;;;;;1.52;0.10;;;;;;;10.99;100.00;92575.56;2099641;28;20745;-88
2021/07/15 03:13:40;;;;;;;1.55;0.13;;;;;;;11.01;100.00;92573.19;2090761;28;20032;-88
2021/07/15 03:14:44;;;;;;;0.22;0.22;;;;;;;10.99;100.00;92569.47;2091127;28;20028;-86
2021/07/15 03:15:45;;;;;;;0.10;0.10;;;;;;;10.90;100.00;92570.13;2098601;28;20028;-91
2021/07/15 03:16:48;;;;;;;0.10;0.10;;;;;;;10.90;100.00;92567.44;2082589;28;20029;-88
2021/07/15 03:17:50;;;;;;;0.10;0.10;;;;;;;10.91;100.00;92573.53;2082637;28;20025;-88
2021/07/15 03:18:53;;;;;;;0.10;0.10;;;;;;;10.90;100.00;92567.44;2089645;28;20116;-90
2021/07/15 03:19:57;;;;;;;3.85;0.10;;;;;;;10.93;100.00;92568.50;2091042;28;20044;-90
2021/07/15 03:21:04;;;;;;;0.13;0.13;;;;;;;10.89;100.00;92571.31;2099376;28;20524;-88
2021/07/15 03:22:07;;;;;;;0.20;0.10;;;;;;;10.88;100.00;92563.69;2090856;28;20469;-91
2021/07/15 03:23:16;;;;;;;1.08;0.20;;;;;;;10.87;100.00;92562.94;2082820;28;20029;-89
2021/07/15 03:24:19;;;;;;;0.10;0.10;;;;;;;10.84;100.00;92566.47;2077964;28;20116;-90
2021/07/15 03:25:22;;;;;;;2.88;0.20;;;;;;;10.90;100.00;92569.38;2080035;28;20029;-86
2021/07/15 03:26:24;;;;;;;0.10;0.10;;;;;;;10.83;100.00;92562.31;2085613;28;20025;-89
2021/07/15 03:27:27;;;;;;;1.23;0.30;;;;;;;10.84;100.00;92577.16;2098980;28;20025;-87
2021/07/15 03:28:32;;;;;;;2.15;0.10;;;;;;;10.86;100.00;92577.50;2098696;28;20025;-87
2021/07/15 03:29:36;;;;;;;0.10;0.10;;;;;;;10.86;100.00;92574.81;2091389;28;20502;-90
2021/07/15 03:30:37;;;;;;;0.15;0.15;;;;;;;10.84;100.00;92577.16;2082550;28;20029;-87
2021/07/15 03:31:38;;;;;;;1.55;0.13;;;;;;;10.90;100.00;92583.50;2082585;28;20409;-86
2021/07/15 03:32:42;;;;;;;3.72;0.28;;;;;;;10.92;100.00;92575.03;2083316;28;20164;-90
2021/07/15 03:33:45;;;;;;;0.10;0.10;;;;;;;10.83;100.00;92579.09;2082776;28;20057;-87
2021/07/15 03:34:47;;;;;;;1.17;0.10;;;;;;;10.86;100.00;92582.84;2069478;28;20026;-91
2021/07/15 03:35:49;;;;;;;2.15;2.05;;;;;;;10.87;100.00;92584.34;2090801;28;20061;-88
2021/07/15 03:36:51;;;;;;;4.60;4.20;;;;;;;10.89;100.00;92578.56;2093468;28;20020;-89
2021/07/15 03:37:52;;;;;;;4.07;3.67;;;;;;;10.87;100.00;92576.31;2090703;28;20028;-88
2021/07/15 03:38:54;;;;;;;1.85;1.60;;;;;;;10.92;100.00;92567.00;2093481;28;20021;-88
2021/07/15 03:39:56;;;;;;;0.75;0.50;;;;;;;10.91;100.00;92584.22;2090533;28;20048;-88
2021/07/15 03:41:03;;;;;;;0.30;0.10;;;;;;;10.92;100.00;92575.78;2095396;28;20648;-87
2021/07/15 03:42:05;;;;;;;1.60;0.20;;;;;;;10.92;100.00;92578.44;2077047;28;20034;-90
2021/07/15 03:43:10;;;;;;;1.65;0.43;;;;;;;10.93;100.00;92576.50;2081514;28;20021;-89
2021/07/15 03:44:12;;;;;;;0.30;0.30;;;;;;;10.96;100.00;92576.41;2090554;28;20489;-92
2021/07/15 03:45:16;;;;;;;0.30;0.30;;;;;;;10.99;100.00;92583.56;2090931;28;20104;-90
2021/07/15 03:46:18;;;;;;;0.88;0.20;;;;;;;10.94;100.00;92578.78;2098144;28;20020;-89
2021/07/15 03:47:21;;;;;;;2.28;0.20;;;;;;;10.92;100.00;92586.47;2082480;28;20017;-88
2021/07/15 03:48:26;;;;;;;1.00;0.10;;;;;;;11.02;100.00;92590.00;2084082;28;20597;-90
2021/07/15 03:49:29;;;;;;;0.17;0.17;;;;;;;10.97;100.00;92588.59;2083465;28;20022;-88
2021/07/15 03:50:31;;;;;;;0.20;0.20;;;;;;;10.98;100.00;92590.09;2082455;28;20024;-88
2021/07/15 03:51:35;;;;;;;0.10;0.10;;;;;;;11.02;100.00;92590.75;2082441;28;20021;-91
2021/07/15 03:52:39;;;;;;;0.20;0.20;;;;;;;11.06;100.00;92591.38;2082763;28;20112;-88
2021/07/15 03:53:43;;;;;;;0.47;0.13;;;;;;;11.09;100.00;92589.75;2083393;28;20032;-89
2021/07/15 03:54:46;;;;;;;0.10;0.10;;;;;;;11.06;100.00;92596.72;2090453;28;20351;-86
2021/07/15 03:55:48;;;;;;;0.15;0.15;;;;;;;11.09;100.00;92592.44;2090521;28;20477;-87
2021/07/15 03:56:50;;;;;;;0.32;0.20;;;;;;;11.10;100.00;92592.00;2082580;28;20452;-88
2021/07/15 03:57:52;;;;;;;0.20;0.20;;;;;;;11.07;100.00;92590.19;2074475;28;20494;-91
2021/07/15 03:58:55;;;;;;;0.20;0.20;;;;;;;11.10;100.00;92591.25;2082543;28;20025;-87
2021/07/15 03:59:58;;;;;;;0.70;0.60;;;;;;;11.10;100.00;92592.00;2091034;28;20485;-88
2021/07/15 04:01:01;;;;;;;1.75;0.65;;;;;;;11.19;100.00;92593.25;2091716;28;20017;-92
2021/07/15 04:02:05;;;;;;;1.65;0.70;;;;;;;11.17;100.00;92592.97;2082607;28;20450;-88
2021/07/15 04:03:07;;;;;;;0.88;0.43;;;;;;;11.18;100.00;92597.88;2082532;28;20033;-88
2021/07/15 04:04:10;;;;;;;0.85;0.50;;;;;;;11.21;100.00;92599.69;2082557;28;20022;-88
2021/07/15 04:05:13;;;;;;;1.70;0.90;;;;;;;11.23;100.00;92602.66;2090621;28;20013;-89
2021/07/15 04:06:16;;;;;;;0.88;0.80;;;;;;;11.26;100.00;92595.72;2082207;28;20818;-92
2021/07/15 04:07:18;;;;;;;1.48;1.00;;;;;;;11.24;100.00;92596.16;2082545;28;20037;-91
2021/07/15 04:08:22;;;;;;;1.45;1.00;;;;;;;11.21;100.00;92596.25;2090371;28;20075;-91
2021/07/15 04:09:24;;;;;;;0.70;0.70;;;;;;;11.26;100.00;92598.38;2082735;28;20022;-90
2021/07/15 04:10:30;;;;;;;3.25;1.15;;;;;;;11.22;100.00;92600.44;2086682;28;20112;-88
2021/07/15 04:11:33;;;;;;;0.63;0.60;;;;;;;11.27;100.00;92602.56;2083514;28;20032;-88
2021/07/15 04:12:34;;;;;;;0.60;0.60;;;;;;;11.27;100.00;92600.63;2081588;28;20514;-87
2021/07/15 04:13:36;;;;;;;0.63;0.63;;;;;;;11.30;100.00;92607.78;2082315;28;20072;-89
2021/07/15 04:14:57;;;;;;;3.00;0.65;;;;;;;11.29;100.00;92608.97;2097796;28;20043;-87
2021/07/15 04:16:22;;;;;;;0.35;0.30;;;;;;;11.30;100.00;92601.69;2082027;28;20124;-89
2021/07/15 04:17:26;;;;;;;0.43;0.38;;;;;;;11.29;100.00;92602.88;2075780;28;20021;-89
2021/07/15 04:18:32;;;;;;;2.67;0.25;;;;;;;11.29;100.00;92600.97;2074794;28;20026;-88
2021/07/15 04:19:37;;;;;;;0.35;0.20;;;;;;;11.30;100.00;92602.44;2083322;28;20028;-88
2021/07/15 04:20:41;;;;;;;0.20;0.20;;;;;;;11.27;100.00;92608.66;2090021;28;20521;-88
2021/07/15 04:21:44;;;;;;;0.82;0.57;;;;;;;11.30;100.00;92607.78;2090097;28;20021;-90
2021/07/15 04:22:48;;;;;;;0.47;0.40;;;;;;;11.26;100.00;92609.84;2094112;28;20116;-89
2021/07/15 04:23:52;;;;;;;0.30;0.30;;;;;;;11.32;100.00;92616.13;2090149;28;20064;-89
2021/07/15 04:24:54;;;;;;;3.17;0.52;;;;;;;11.34;100.00;92619.13;2098368;28;20797;-88
2021/07/15 04:25:55;;;;;;;0.60;0.60;;;;;;;11.40;100.00;92619.31;2090618;28;20056;-89
2021/07/15 04:26:59;;;;;;;0.43;0.40;;;;;;;11.41;100.00;92622.75;2081806;28;20032;-90
2021/07/15 04:28:03;;;;;;;0.40;0.40;;;;;;;11.44;100.00;92625.31;2091055;28;20078;-87
2021/07/15 04:29:04;;;;;;;1.58;0.47;;;;;;;11.44;100.00;92619.97;2098140;28;20040;-89
2021/07/15 04:30:08;;;;;;;3.08;0.30;;;;;;;11.38;100.00;92626.31;2084635;28;20025;-92
2021/07/15 04:31:24;;;;;;;1.85;0.50;;;;;;;11.42;100.00;92624.25;2081872;28;20063;-91
2021/07/15 04:32:46;;;;;;;0.40;0.40;;;;;;;11.43;100.00;92621.16;2086235;28;20116;-88
2021/07/15 04:33:48;;;;;;;0.60;0.47;;;;;;;11.43;100.00;92615.78;2090057;28;20059;-90
2021/07/15 04:34:50;;;;;;;2.05;0.60;;;;;;;11.45;100.00;92618.78;2082072;28;20052;-90
2021/07/15 04:35:55;;;;;;;0.47;0.47;;;;;;;11.45;100.00;92618.03;2090010;28;20027;-89
2021/07/15 04:36:57;;;;;;;0.32;0.32;;;;;;;11.49;100.00;92621.34;2082123;28;20053;-88
2021/07/15 04:38:00;;;;;;;0.32;0.32;;;;;;;11.54;100.00;92618.09;2085430;28;20041;-89
2021/07/15 04:39:02;;;;;;;1.40;0.30;;;;;;;11.54;100.00;92621.53;2090158;28;20036;-89
2021/07/15 04:40:08;;;;;;;1.23;0.30;;;;;;;11.51;100.00;92621.66;2090141;28;20465;-90
2021/07/15 04:41:11;;;;;;;1.42;0.20;;;;;;;11.58;100.00;92616.06;2090132;28;20036;-92
2021/07/15 04:42:14;;;;;;;0.47;0.32;;;;;;;11.56;100.00;92621.09;2075726;28;20024;-90
2021/07/15 04:43:16;;;;;;;0.20;0.20;;;;;;;11.58;100.00;92611.44;2082444;28;20021;-90
2021/07/15 04:44:18;;;;;;;1.20;0.20;;;;;;;11.64;100.00;92617.00;2085150;28;20029;-87
2021/07/15 04:45:25;;;;;;;0.77;0.20;;;;;;;11.62;100.00;92610.59;2081800;28;20022;-93
2021/07/15 04:46:27;;;;;;;3.97;0.40;;;;;;;11.61;100.00;92599.13;2090706;28;20027;-92
2021/07/15 04:47:29;;;;;;;0.65;0.65;;;;;;;11.67;100.00;92602.75;2081692;28;20035;-88
2021/07/15 04:48:30;;;;;;;0.38;0.20;;;;;;;11.69;100.00;92602.31;2082204;28;20102;-89
2021/07/15 04:49:32;;;;;;;1.38;0.20;;;;;;;11.72;100.00;92596.84;2095010;28;20085;-87
2021/07/15 04:50:35;;;;;;;0.60;0.30;;;;;;;11.80;100.00;92602.69;2076738;28;20026;-91
2021/07/15 04:51:40;;;;;;;3.90;0.30;;;;;;;11.79;100.00;92601.19;2081776;28;20033;-87
2021/07/15 04:52:43;;;;;;;0.30;0.20;;;;;;;11.82;100.00;92603.00;2089765;28;20064;-89
2021/07/15 04:53:47;;;;;;;1.05;0.28;;;;;;;11.84;100.00;92603.34;2081281;28;20026;-88
2021/07/15 04:54:50;;;;;;;0.20;0.20;;;;;;;11.77;100.00;92601.66;2098172;28;20029;-89
2021/07/15 04:55:55;;;;;;;1.00;0.20;;;;;;;11.88;100.00;92603.22;2095502;28;20115;-86
2021/07/15 04:56:56;;;;;;;0.38;0.38;;;;;;;11.93;100.00;92595.38;2081481;28;20017;-87
2021/07/15 04:58:00;;;;;;;2.88;0.30;;;;;;;11.90;100.00;92596.25;2081255;28;20029;-86
2021/07/15 04:59:02;;;;;;;4.47;0.30;;;;;;;11.94;100.00;92590.75;2087982;28;20074;-86